sensor_id;sensor_type;location;lat;lon;timestamp;P1;durP1;ratioP1;P2;durP2;ratioP2
9763;SDS011;4921;43.214;27.936;2024-02-16T00:00:25;12.75;;;5.88;;
9763;SDS011;4921;43.214;27.936;2024-02-16T00:02:51;12.55;;;6.10;;
9763;SDS011;4921;43.214;27.936;2024-02-16T00:05:17;14.40;;;5.88;;
9763;SDS011;4921;43.214;27.936;2024-02-16T00:07:43;11.98;;;6.38;;
9763;SDS011;4921;43.214;27.936;2024-02-16T00:10:08;13.05;;;6.43;;
9763;SDS011;4921;43.214;27.936;2024-02-16T00:12:35;12.65;;;6.78;;
9763;SDS011;4921;43.214;27.936;2024-02-16T00:15:01;13.80;;;7.05;;
9763;SDS011;4921;43.214;27.936;2024-02-16T00:17:27;14.20;;;7.13;;
9763;SDS011;4921;43.214;27.936;2024-02-16T00:19:54;11.52;;;6.00;;
9763;SDS011;4921;43.214;27.936;2024-02-16T00:22:20;15.73;;;6.43;;
9763;SDS011;4921;43.214;27.936;2024-02-16T00:24:46;16.30;;;6.88;;
9763;SDS011;4921;43.214;27.936;2024-02-16T00:27:11;13.07;;;6.88;;
9763;SDS011;4921;43.214;27.936;2024-02-16T00:29:37;13.57;;;7.45;;
9763;SDS011;4921;43.214;27.936;2024-02-16T00:32:05;14.32;;;6.60;;
9763;SDS011;4921;43.214;27.936;2024-02-16T00:34:32;12.35;;;6.55;;
9763;SDS011;4921;43.214;27.936;2024-02-16T00:36:58;16.98;;;7.57;;
9763;SDS011;4921;43.214;27.936;2024-02-16T00:39:23;14.75;;;7.68;;
9763;SDS011;4921;43.214;27.936;2024-02-16T00:41:50;14.98;;;7.50;;
9763;SDS011;4921;43.214;27.936;2024-02-16T00:44:16;14.98;;;6.95;;
9763;SDS011;4921;43.214;27.936;2024-02-16T00:46:42;13.63;;;6.80;;
9763;SDS011;4921;43.214;27.936;2024-02-16T00:49:08;15.10;;;6.65;;
9763;SDS011;4921;43.214;27.936;2024-02-16T00:51:35;14.68;;;7.03;;
9763;SDS011;4921;43.214;27.936;2024-02-16T00:54:04;15.85;;;7.35;;
9763;SDS011;4921;43.214;27.936;2024-02-16T00:56:30;13.43;;;7.07;;
9763;SDS011;4921;43.214;27.936;2024-02-16T00:58:56;17.20;;;7.40;;
9763;SDS011;4921;43.214;27.936;2024-02-16T01:01:21;12.15;;;6.57;;
9763;SDS011;4921;43.214;27.936;2024-02-16T01:03:49;15.65;;;7.28;;
9763;SDS011;4921;43.214;27.936;2024-02-16T01:06:17;14.27;;;7.72;;
9763;SDS011;4921;43.214;27.936;2024-02-16T01:08:43;15.27;;;7.65;;
9763;SDS011;4921;43.214;27.936;2024-02-16T01:11:08;17.67;;;6.85;;
9763;SDS011;4921;43.214;27.936;2024-02-16T01:13:34;16.80;;;7.95;;
9763;SDS011;4921;43.214;27.936;2024-02-16T01:16:00;17.52;;;6.93;;
9763;SDS011;4921;43.214;27.936;2024-02-16T01:18:27;16.45;;;7.45;;
9763;SDS011;4921;43.214;27.936;2024-02-16T01:20:53;14.88;;;7.45;;
9763;SDS011;4921;43.214;27.936;2024-02-16T01:23:19;15.98;;;7.60;;
9763;SDS011;4921;43.214;27.936;2024-02-16T01:25:45;15.25;;;7.07;;
9763;SDS011;4921;43.214;27.936;2024-02-16T01:28:11;15.30;;;7.03;;
9763;SDS011;4921;43.214;27.936;2024-02-16T01:30:38;16.30;;;8.05;;
9763;SDS011;4921;43.214;27.936;2024-02-16T01:33:04;20.73;;;7.70;;
9763;SDS011;4921;43.214;27.936;2024-02-16T01:35:31;14.98;;;7.50;;
9763;SDS011;4921;43.214;27.936;2024-02-16T01:37:57;16.67;;;7.63;;
9763;SDS011;4921;43.214;27.936;2024-02-16T01:40:22;16.23;;;6.68;;
9763;SDS011;4921;43.214;27.936;2024-02-16T01:42:51;18.52;;;8.10;;
9763;SDS011;4921;43.214;27.936;2024-02-16T01:45:18;13.20;;;7.32;;
9763;SDS011;4921;43.214;27.936;2024-02-16T01:47:44;14.80;;;7.20;;
9763;SDS011;4921;43.214;27.936;2024-02-16T01:50:14;17.63;;;7.55;;
9763;SDS011;4921;43.214;27.936;2024-02-16T01:52:40;16.02;;;7.57;;
9763;SDS011;4921;43.214;27.936;2024-02-16T01:55:08;13.50;;;6.82;;
9763;SDS011;4921;43.214;27.936;2024-02-16T01:57:35;15.93;;;7.65;;
9763;SDS011;4921;43.214;27.936;2024-02-16T02:00:01;14.27;;;7.75;;
9763;SDS011;4921;43.214;27.936;2024-02-16T02:02:28;17.27;;;7.70;;
9763;SDS011;4921;43.214;27.936;2024-02-16T02:04:53;13.38;;;7.10;;
9763;SDS011;4921;43.214;27.936;2024-02-16T02:07:24;15.25;;;7.88;;
9763;SDS011;4921;43.214;27.936;2024-02-16T02:09:51;13.93;;;6.97;;
9763;SDS011;4921;43.214;27.936;2024-02-16T02:12:17;17.48;;;7.28;;
9763;SDS011;4921;43.214;27.936;2024-02-16T02:14:43;16.13;;;7.40;;
9763;SDS011;4921;43.214;27.936;2024-02-16T02:17:09;15.02;;;7.32;;
9763;SDS011;4921;43.214;27.936;2024-02-16T02:19:35;13.00;;;6.38;;
9763;SDS011;4921;43.214;27.936;2024-02-16T02:22:00;13.63;;;6.55;;
9763;SDS011;4921;43.214;27.936;2024-02-16T02:24:26;15.43;;;7.22;;
9763;SDS011;4921;43.214;27.936;2024-02-16T02:26:52;14.02;;;7.32;;
9763;SDS011;4921;43.214;27.936;2024-02-16T02:29:17;16.08;;;7.32;;
9763;SDS011;4921;43.214;27.936;2024-02-16T02:31:43;14.50;;;7.45;;
9763;SDS011;4921;43.214;27.936;2024-02-16T02:34:09;13.30;;;6.80;;
9763;SDS011;4921;43.214;27.936;2024-02-16T02:36:35;12.85;;;6.57;;
9763;SDS011;4921;43.214;27.936;2024-02-16T02:39:01;14.38;;;6.70;;
9763;SDS011;4921;43.214;27.936;2024-02-16T02:41:27;12.75;;;6.13;;
9763;SDS011;4921;43.214;27.936;2024-02-16T02:43:52;14.55;;;7.10;;
9763;SDS011;4921;43.214;27.936;2024-02-16T02:46:18;13.52;;;6.20;;
9763;SDS011;4921;43.214;27.936;2024-02-16T02:48:44;10.90;;;5.53;;
9763;SDS011;4921;43.214;27.936;2024-02-16T02:51:10;14.18;;;6.43;;
9763;SDS011;4921;43.214;27.936;2024-02-16T02:53:36;12.27;;;6.28;;
9763;SDS011;4921;43.214;27.936;2024-02-16T02:56:02;16.00;;;6.50;;
9763;SDS011;4921;43.214;27.936;2024-02-16T02:58:27;16.42;;;6.15;;
9763;SDS011;4921;43.214;27.936;2024-02-16T03:00:53;15.65;;;6.55;;
9763;SDS011;4921;43.214;27.936;2024-02-16T03:03:19;13.40;;;5.85;;
9763;SDS011;4921;43.214;27.936;2024-02-16T03:05:45;14.38;;;5.68;;
9763;SDS011;4921;43.214;27.936;2024-02-16T03:08:11;14.15;;;5.90;;
9763;SDS011;4921;43.214;27.936;2024-02-16T03:10:36;12.98;;;6.45;;
9763;SDS011;4921;43.214;27.936;2024-02-16T03:13:02;15.68;;;6.18;;
9763;SDS011;4921;43.214;27.936;2024-02-16T03:15:28;12.40;;;6.18;;
9763;SDS011;4921;43.214;27.936;2024-02-16T03:17:54;15.23;;;6.18;;
9763;SDS011;4921;43.214;27.936;2024-02-16T03:20:20;13.95;;;5.57;;
9763;SDS011;4921;43.214;27.936;2024-02-16T03:22:46;12.05;;;5.80;;
9763;SDS011;4921;43.214;27.936;2024-02-16T03:25:13;10.80;;;5.30;;
9763;SDS011;4921;43.214;27.936;2024-02-16T03:27:39;11.20;;;5.53;;
9763;SDS011;4921;43.214;27.936;2024-02-16T03:30:06;12.13;;;5.18;;
9763;SDS011;4921;43.214;27.936;2024-02-16T03:32:33;12.50;;;6.05;;
9763;SDS011;4921;43.214;27.936;2024-02-16T03:34:59;10.95;;;5.45;;
9763;SDS011;4921;43.214;27.936;2024-02-16T03:37:24;13.20;;;4.97;;
9763;SDS011;4921;43.214;27.936;2024-02-16T03:39:50;11.30;;;5.85;;
9763;SDS011;4921;43.214;27.936;2024-02-16T03:42:16;10.88;;;5.82;;
9763;SDS011;4921;43.214;27.936;2024-02-16T03:44:43;11.07;;;5.63;;
9763;SDS011;4921;43.214;27.936;2024-02-16T03:47:09;12.88;;;5.95;;
9763;SDS011;4921;43.214;27.936;2024-02-16T03:49:34;11.95;;;5.75;;
9763;SDS011;4921;43.214;27.936;2024-02-16T03:52:01;13.05;;;6.38;;
9763;SDS011;4921;43.214;27.936;2024-02-16T03:54:26;16.00;;;6.38;;
9763;SDS011;4921;43.214;27.936;2024-02-16T03:56:53;13.27;;;6.82;;
9763;SDS011;4921;43.214;27.936;2024-02-16T03:59:19;12.95;;;5.82;;
9763;SDS011;4921;43.214;27.936;2024-02-16T04:01:44;12.85;;;5.93;;
9763;SDS011;4921;43.214;27.936;2024-02-16T04:04:11;14.38;;;6.43;;
9763;SDS011;4921;43.214;27.936;2024-02-16T04:06:37;12.73;;;5.97;;
9763;SDS011;4921;43.214;27.936;2024-02-16T04:09:03;13.30;;;6.07;;
9763;SDS011;4921;43.214;27.936;2024-02-16T04:11:32;13.63;;;6.10;;
9763;SDS011;4921;43.214;27.936;2024-02-16T04:13:59;13.60;;;6.97;;
9763;SDS011;4921;43.214;27.936;2024-02-16T04:16:24;12.05;;;6.20;;
9763;SDS011;4921;43.214;27.936;2024-02-16T04:18:50;11.55;;;6.50;;
9763;SDS011;4921;43.214;27.936;2024-02-16T04:21:16;11.30;;;5.50;;
9763;SDS011;4921;43.214;27.936;2024-02-16T04:23:42;12.55;;;6.10;;
9763;SDS011;4921;43.214;27.936;2024-02-16T04:26:07;14.20;;;5.90;;
9763;SDS011;4921;43.214;27.936;2024-02-16T04:28:34;13.93;;;6.35;;
9763;SDS011;4921;43.214;27.936;2024-02-16T04:31:00;11.85;;;5.88;;
9763;SDS011;4921;43.214;27.936;2024-02-16T04:33:25;12.50;;;5.72;;
9763;SDS011;4921;43.214;27.936;2024-02-16T04:35:51;12.23;;;5.80;;
9763;SDS011;4921;43.214;27.936;2024-02-16T04:38:17;10.15;;;5.38;;
9763;SDS011;4921;43.214;27.936;2024-02-16T04:40:42;12.10;;;6.07;;
9763;SDS011;4921;43.214;27.936;2024-02-16T04:43:08;12.35;;;5.53;;
9763;SDS011;4921;43.214;27.936;2024-02-16T04:45:34;13.95;;;6.60;;
9763;SDS011;4921;43.214;27.936;2024-02-16T04:48:03;10.35;;;5.40;;
9763;SDS011;4921;43.214;27.936;2024-02-16T04:50:30;12.50;;;5.65;;
9763;SDS011;4921;43.214;27.936;2024-02-16T04:52:57;11.07;;;5.60;;
9763;SDS011;4921;43.214;27.936;2024-02-16T04:55:22;11.45;;;5.82;;
9763;SDS011;4921;43.214;27.936;2024-02-16T04:57:48;12.10;;;5.95;;
9763;SDS011;4921;43.214;27.936;2024-02-16T05:00:14;13.00;;;5.78;;
9763;SDS011;4921;43.214;27.936;2024-02-16T05:02:39;10.27;;;5.22;;
9763;SDS011;4921;43.214;27.936;2024-02-16T05:05:05;10.13;;;5.00;;
9763;SDS011;4921;43.214;27.936;2024-02-16T05:07:30;8.98;;;4.93;;
9763;SDS011;4921;43.214;27.936;2024-02-16T05:09:56;10.07;;;5.22;;
9763;SDS011;4921;43.214;27.936;2024-02-16T05:12:23;11.00;;;5.13;;
9763;SDS011;4921;43.214;27.936;2024-02-16T05:14:49;10.98;;;5.00;;
9763;SDS011;4921;43.214;27.936;2024-02-16T05:17:16;11.85;;;5.75;;
9763;SDS011;4921;43.214;27.936;2024-02-16T05:19:41;12.35;;;5.82;;
9763;SDS011;4921;43.214;27.936;2024-02-16T05:22:07;10.23;;;5.05;;
9763;SDS011;4921;43.214;27.936;2024-02-16T05:24:32;11.15;;;5.95;;
9763;SDS011;4921;43.214;27.936;2024-02-16T05:26:58;11.73;;;5.25;;
9763;SDS011;4921;43.214;27.936;2024-02-16T05:29:24;13.05;;;4.95;;
9763;SDS011;4921;43.214;27.936;2024-02-16T05:31:52;12.25;;;5.85;;
9763;SDS011;4921;43.214;27.936;2024-02-16T05:36:44;10.15;;;5.00;;
9763;SDS011;4921;43.214;27.936;2024-02-16T05:39:10;13.48;;;5.55;;
9763;SDS011;4921;43.214;27.936;2024-02-16T05:41:46;10.45;;;5.45;;
9763;SDS011;4921;43.214;27.936;2024-02-16T05:44:11;15.85;;;5.03;;
9763;SDS011;4921;43.214;27.936;2024-02-16T05:46:37;11.43;;;5.30;;
9763;SDS011;4921;43.214;27.936;2024-02-16T05:49:03;12.20;;;5.78;;
9763;SDS011;4921;43.214;27.936;2024-02-16T05:51:35;10.20;;;5.20;;
9763;SDS011;4921;43.214;27.936;2024-02-16T05:54:02;10.90;;;5.22;;
9763;SDS011;4921;43.214;27.936;2024-02-16T05:56:28;8.80;;;5.07;;
9763;SDS011;4921;43.214;27.936;2024-02-16T05:58:54;9.23;;;4.82;;
9763;SDS011;4921;43.214;27.936;2024-02-16T06:01:19;12.05;;;5.25;;
9763;SDS011;4921;43.214;27.936;2024-02-16T06:03:45;11.18;;;5.70;;
9763;SDS011;4921;43.214;27.936;2024-02-16T06:06:10;11.57;;;5.45;;
9763;SDS011;4921;43.214;27.936;2024-02-16T06:08:36;9.07;;;4.38;;
9763;SDS011;4921;43.214;27.936;2024-02-16T06:11:01;11.98;;;5.18;;
9763;SDS011;4921;43.214;27.936;2024-02-16T06:13:27;8.85;;;5.00;;
9763;SDS011;4921;43.214;27.936;2024-02-16T06:15:54;11.10;;;5.53;;
9763;SDS011;4921;43.214;27.936;2024-02-16T06:18:20;10.30;;;4.85;;
9763;SDS011;4921;43.214;27.936;2024-02-16T06:20:45;12.52;;;4.32;;
9763;SDS011;4921;43.214;27.936;2024-02-16T06:23:11;9.77;;;4.60;;
9763;SDS011;4921;43.214;27.936;2024-02-16T06:25:37;7.70;;;4.53;;
9763;SDS011;4921;43.214;27.936;2024-02-16T06:28:02;7.80;;;4.07;;
9763;SDS011;4921;43.214;27.936;2024-02-16T06:30:29;9.27;;;4.55;;
9763;SDS011;4921;43.214;27.936;2024-02-16T06:32:55;10.25;;;4.60;;
9763;SDS011;4921;43.214;27.936;2024-02-16T06:35:21;7.80;;;4.25;;
9763;SDS011;4921;43.214;27.936;2024-02-16T06:37:46;9.45;;;4.18;;
9763;SDS011;4921;43.214;27.936;2024-02-16T06:40:12;8.45;;;4.53;;
9763;SDS011;4921;43.214;27.936;2024-02-16T06:42:38;8.98;;;4.70;;
9763;SDS011;4921;43.214;27.936;2024-02-16T06:45:03;10.77;;;4.55;;
9763;SDS011;4921;43.214;27.936;2024-02-16T06:47:30;13.10;;;4.50;;
9763;SDS011;4921;43.214;27.936;2024-02-16T06:49:56;9.70;;;4.28;;
9763;SDS011;4921;43.214;27.936;2024-02-16T06:52:22;8.70;;;4.00;;
9763;SDS011;4921;43.214;27.936;2024-02-16T06:54:47;7.20;;;3.90;;
9763;SDS011;4921;43.214;27.936;2024-02-16T06:57:15;6.40;;;3.15;;
9763;SDS011;4921;43.214;27.936;2024-02-16T06:59:41;8.45;;;4.05;;
9763;SDS011;4921;43.214;27.936;2024-02-16T07:02:06;7.50;;;3.80;;
9763;SDS011;4921;43.214;27.936;2024-02-16T07:04:32;9.00;;;4.03;;
9763;SDS011;4921;43.214;27.936;2024-02-16T07:06:58;9.20;;;4.13;;
9763;SDS011;4921;43.214;27.936;2024-02-16T07:09:23;8.80;;;4.38;;
9763;SDS011;4921;43.214;27.936;2024-02-16T07:11:49;10.10;;;5.00;;
9763;SDS011;4921;43.214;27.936;2024-02-16T07:14:15;11.30;;;5.43;;
9763;SDS011;4921;43.214;27.936;2024-02-16T07:16:41;11.52;;;5.43;;
9763;SDS011;4921;43.214;27.936;2024-02-16T07:19:07;9.68;;;5.15;;
9763;SDS011;4921;43.214;27.936;2024-02-16T07:21:32;10.35;;;4.57;;
9763;SDS011;4921;43.214;27.936;2024-02-16T07:23:58;11.32;;;5.72;;
9763;SDS011;4921;43.214;27.936;2024-02-16T07:26:24;12.85;;;5.85;;
9763;SDS011;4921;43.214;27.936;2024-02-16T07:28:50;12.10;;;6.00;;
9763;SDS011;4921;43.214;27.936;2024-02-16T07:31:15;13.30;;;6.43;;
9763;SDS011;4921;43.214;27.936;2024-02-16T07:33:41;14.15;;;6.72;;
9763;SDS011;4921;43.214;27.936;2024-02-16T07:36:07;14.43;;;6.97;;
9763;SDS011;4921;43.214;27.936;2024-02-16T07:38:33;12.07;;;6.40;;
9763;SDS011;4921;43.214;27.936;2024-02-16T07:40:58;14.57;;;6.97;;
9763;SDS011;4921;43.214;27.936;2024-02-16T07:43:25;14.57;;;6.65;;
9763;SDS011;4921;43.214;27.936;2024-02-16T07:45:52;14.07;;;6.15;;
9763;SDS011;4921;43.214;27.936;2024-02-16T07:48:20;13.90;;;6.43;;
9763;SDS011;4921;43.214;27.936;2024-02-16T07:50:47;12.70;;;5.97;;
9763;SDS011;4921;43.214;27.936;2024-02-16T07:53:13;15.93;;;6.28;;
9763;SDS011;4921;43.214;27.936;2024-02-16T07:55:39;11.43;;;5.50;;
9763;SDS011;4921;43.214;27.936;2024-02-16T07:58:05;13.50;;;6.47;;
9763;SDS011;4921;43.214;27.936;2024-02-16T08:00:30;13.52;;;6.40;;
9763;SDS011;4921;43.214;27.936;2024-02-16T08:02:56;12.45;;;5.75;;
9763;SDS011;4921;43.214;27.936;2024-02-16T08:05:21;11.10;;;5.85;;
9763;SDS011;4921;43.214;27.936;2024-02-16T08:07:48;14.57;;;6.57;;
9763;SDS011;4921;43.214;27.936;2024-02-16T08:10:14;13.05;;;6.18;;
9763;SDS011;4921;43.214;27.936;2024-02-16T08:12:39;13.35;;;5.95;;
9763;SDS011;4921;43.214;27.936;2024-02-16T08:15:06;13.65;;;6.32;;
9763;SDS011;4921;43.214;27.936;2024-02-16T08:17:36;11.57;;;5.95;;
9763;SDS011;4921;43.214;27.936;2024-02-16T08:20:02;13.98;;;6.10;;
9763;SDS011;4921;43.214;27.936;2024-02-16T08:22:28;14.73;;;6.57;;
9763;SDS011;4921;43.214;27.936;2024-02-16T08:24:54;15.88;;;8.07;;
9763;SDS011;4921;43.214;27.936;2024-02-16T08:27:25;15.65;;;7.05;;
9763;SDS011;4921;43.214;27.936;2024-02-16T08:29:51;13.43;;;6.95;;
9763;SDS011;4921;43.214;27.936;2024-02-16T08:32:17;13.88;;;6.45;;
9763;SDS011;4921;43.214;27.936;2024-02-16T08:34:43;16.90;;;7.00;;
9763;SDS011;4921;43.214;27.936;2024-02-16T08:37:09;13.70;;;6.65;;
9763;SDS011;4921;43.214;27.936;2024-02-16T08:39:37;15.63;;;6.70;;
9763;SDS011;4921;43.214;27.936;2024-02-16T08:42:03;13.68;;;6.05;;
9763;SDS011;4921;43.214;27.936;2024-02-16T08:44:29;15.63;;;6.53;;
9763;SDS011;4921;43.214;27.936;2024-02-16T08:46:54;17.33;;;7.47;;
9763;SDS011;4921;43.214;27.936;2024-02-16T08:49:20;16.40;;;6.95;;
9763;SDS011;4921;43.214;27.936;2024-02-16T08:51:46;15.88;;;7.30;;
9763;SDS011;4921;43.214;27.936;2024-02-16T08:54:12;14.80;;;6.50;;
9763;SDS011;4921;43.214;27.936;2024-02-16T08:56:38;16.80;;;7.25;;
9763;SDS011;4921;43.214;27.936;2024-02-16T08:59:04;15.77;;;7.25;;
9763;SDS011;4921;43.214;27.936;2024-02-16T09:01:34;21.77;;;10.13;;
9763;SDS011;4921;43.214;27.936;2024-02-16T09:04:00;16.23;;;7.97;;
9763;SDS011;4921;43.214;27.936;2024-02-16T09:06:26;16.60;;;7.97;;
9763;SDS011;4921;43.214;27.936;2024-02-16T09:08:52;17.90;;;7.93;;
9763;SDS011;4921;43.214;27.936;2024-02-16T09:11:17;16.42;;;6.78;;
9763;SDS011;4921;43.214;27.936;2024-02-16T09:13:43;18.42;;;8.18;;
9763;SDS011;4921;43.214;27.936;2024-02-16T09:16:08;19.17;;;8.48;;
9763;SDS011;4921;43.214;27.936;2024-02-16T09:18:34;17.42;;;7.82;;
9763;SDS011;4921;43.214;27.936;2024-02-16T09:21:02;16.08;;;7.43;;
9763;SDS011;4921;43.214;27.936;2024-02-16T09:23:27;21.98;;;7.38;;
9763;SDS011;4921;43.214;27.936;2024-02-16T09:25:53;19.52;;;8.55;;
9763;SDS011;4921;43.214;27.936;2024-02-16T09:28:20;16.10;;;7.57;;
9763;SDS011;4921;43.214;27.936;2024-02-16T09:30:46;15.27;;;7.75;;
9763;SDS011;4921;43.214;27.936;2024-02-16T09:33:12;14.95;;;8.13;;
9763;SDS011;4921;43.214;27.936;2024-02-16T09:35:38;15.52;;;6.88;;
9763;SDS011;4921;43.214;27.936;2024-02-16T09:38:04;17.13;;;7.93;;
9763;SDS011;4921;43.214;27.936;2024-02-16T09:40:30;18.45;;;8.05;;
9763;SDS011;4921;43.214;27.936;2024-02-16T09:42:56;15.82;;;7.55;;
9763;SDS011;4921;43.214;27.936;2024-02-16T09:45:21;14.82;;;7.13;;
9763;SDS011;4921;43.214;27.936;2024-02-16T09:47:49;17.48;;;8.25;;
9763;SDS011;4921;43.214;27.936;2024-02-16T09:50:15;19.33;;;9.10;;
9763;SDS011;4921;43.214;27.936;2024-02-16T09:52:41;19.05;;;7.82;;
9763;SDS011;4921;43.214;27.936;2024-02-16T09:55:13;16.30;;;8.13;;
9763;SDS011;4921;43.214;27.936;2024-02-16T09:57:39;20.30;;;8.18;;
9763;SDS011;4921;43.214;27.936;2024-02-16T10:00:05;22.90;;;10.10;;
9763;SDS011;4921;43.214;27.936;2024-02-16T10:02:44;22.63;;;10.05;;
9763;SDS011;4921;43.214;27.936;2024-02-16T10:08:12;19.52;;;9.35;;
9763;SDS011;4921;43.214;27.936;2024-02-16T10:10:38;20.85;;;9.70;;
9763;SDS011;4921;43.214;27.936;2024-02-16T10:13:04;20.30;;;9.68;;
9763;SDS011;4921;43.214;27.936;2024-02-16T10:15:31;19.75;;;9.40;;
9763;SDS011;4921;43.214;27.936;2024-02-16T10:18:05;21.10;;;9.65;;
9763;SDS011;4921;43.214;27.936;2024-02-16T10:20:33;20.95;;;9.23;;
9763;SDS011;4921;43.214;27.936;2024-02-16T10:23:05;23.30;;;9.85;;
9763;SDS011;4921;43.214;27.936;2024-02-16T10:25:33;20.50;;;9.00;;
9763;SDS011;4921;43.214;27.936;2024-02-16T10:28:05;17.95;;;7.93;;
9763;SDS011;4921;43.214;27.936;2024-02-16T10:30:36;17.65;;;8.43;;
9763;SDS011;4921;43.214;27.936;2024-02-16T10:33:03;20.85;;;8.88;;
9763;SDS011;4921;43.214;27.936;2024-02-16T10:35:30;19.45;;;9.15;;
9763;SDS011;4921;43.214;27.936;2024-02-16T10:37:59;21.27;;;10.32;;
9763;SDS011;4921;43.214;27.936;2024-02-16T10:40:29;22.00;;;10.27;;
9763;SDS011;4921;43.214;27.936;2024-02-16T10:42:58;19.95;;;9.98;;
9763;SDS011;4921;43.214;27.936;2024-02-16T10:45:29;22.42;;;11.05;;
9763;SDS011;4921;43.214;27.936;2024-02-16T10:47:56;22.63;;;11.43;;
9763;SDS011;4921;43.214;27.936;2024-02-16T10:50:22;26.98;;;11.68;;
9763;SDS011;4921;43.214;27.936;2024-02-16T10:52:48;25.70;;;13.25;;
9763;SDS011;4921;43.214;27.936;2024-02-16T10:55:15;28.33;;;13.15;;
9763;SDS011;4921;43.214;27.936;2024-02-16T10:57:41;33.00;;;13.88;;
9763;SDS011;4921;43.214;27.936;2024-02-16T11:00:07;29.15;;;13.20;;
9763;SDS011;4921;43.214;27.936;2024-02-16T11:02:50;26.85;;;13.10;;
9763;SDS011;4921;43.214;27.936;2024-02-16T11:08:02;29.08;;;13.13;;
9763;SDS011;4921;43.214;27.936;2024-02-16T11:10:29;31.15;;;14.38;;
9763;SDS011;4921;43.214;27.936;2024-02-16T11:12:59;24.88;;;12.68;;
9763;SDS011;4921;43.214;27.936;2024-02-16T11:15:28;29.50;;;13.07;;
9763;SDS011;4921;43.214;27.936;2024-02-16T11:17:56;26.45;;;12.02;;
9763;SDS011;4921;43.214;27.936;2024-02-16T11:20:25;31.40;;;13.10;;
9763;SDS011;4921;43.214;27.936;2024-02-16T11:22:51;32.67;;;13.63;;
9763;SDS011;4921;43.214;27.936;2024-02-16T11:25:18;28.33;;;12.30;;
9763;SDS011;4921;43.214;27.936;2024-02-16T11:27:46;26.98;;;12.80;;
9763;SDS011;4921;43.214;27.936;2024-02-16T11:30:12;28.85;;;13.82;;
9763;SDS011;4921;43.214;27.936;2024-02-16T11:32:38;29.63;;;12.10;;
9763;SDS011;4921;43.214;27.936;2024-02-16T11:35:08;28.23;;;13.32;;
9763;SDS011;4921;43.214;27.936;2024-02-16T11:37:34;28.10;;;13.02;;
9763;SDS011;4921;43.214;27.936;2024-02-16T11:40:00;26.88;;;13.15;;
9763;SDS011;4921;43.214;27.936;2024-02-16T11:42:25;26.83;;;13.20;;
9763;SDS011;4921;43.214;27.936;2024-02-16T11:44:53;29.30;;;13.80;;
9763;SDS011;4921;43.214;27.936;2024-02-16T11:47:20;26.35;;;11.60;;
9763;SDS011;4921;43.214;27.936;2024-02-16T11:50:03;28.70;;;12.20;;
9763;SDS011;4921;43.214;27.936;2024-02-16T11:52:29;24.55;;;11.52;;
9763;SDS011;4921;43.214;27.936;2024-02-16T11:54:55;28.08;;;12.57;;
9763;SDS011;4921;43.214;27.936;2024-02-16T11:57:21;25.10;;;11.75;;
9763;SDS011;4921;43.214;27.936;2024-02-16T11:59:47;26.48;;;11.55;;
9763;SDS011;4921;43.214;27.936;2024-02-16T12:02:19;27.80;;;12.82;;
9763;SDS011;4921;43.214;27.936;2024-02-16T12:04:46;23.75;;;11.30;;
9763;SDS011;4921;43.214;27.936;2024-02-16T12:07:12;27.58;;;12.70;;
9763;SDS011;4921;43.214;27.936;2024-02-16T12:09:38;27.85;;;12.25;;
9763;SDS011;4921;43.214;27.936;2024-02-16T12:12:05;24.15;;;11.88;;
9763;SDS011;4921;43.214;27.936;2024-02-16T12:14:31;24.25;;;11.63;;
9763;SDS011;4921;43.214;27.936;2024-02-16T12:16:58;27.25;;;12.32;;
9763;SDS011;4921;43.214;27.936;2024-02-16T12:19:24;27.02;;;11.93;;
9763;SDS011;4921;43.214;27.936;2024-02-16T12:21:51;30.95;;;13.48;;
9763;SDS011;4921;43.214;27.936;2024-02-16T12:24:17;28.13;;;12.90;;
9763;SDS011;4921;43.214;27.936;2024-02-16T12:26:43;29.00;;;12.55;;
9763;SDS011;4921;43.214;27.936;2024-02-16T12:29:09;23.27;;;11.23;;
9763;SDS011;4921;43.214;27.936;2024-02-16T12:31:38;23.63;;;11.10;;
9763;SDS011;4921;43.214;27.936;2024-02-16T12:36:32;32.17;;;12.75;;
9763;SDS011;4921;43.214;27.936;2024-02-16T12:39:01;29.13;;;13.45;;
9763;SDS011;4921;43.214;27.936;2024-02-16T12:41:29;29.10;;;13.38;;
9763;SDS011;4921;43.214;27.936;2024-02-16T12:43:55;28.20;;;12.95;;
9763;SDS011;4921;43.214;27.936;2024-02-16T12:46:21;28.65;;;12.98;;
9763;SDS011;4921;43.214;27.936;2024-02-16T12:48:46;28.48;;;12.07;;
9763;SDS011;4921;43.214;27.936;2024-02-16T12:51:12;28.25;;;12.38;;
9763;SDS011;4921;43.214;27.936;2024-02-16T12:53:38;28.23;;;12.50;;
9763;SDS011;4921;43.214;27.936;2024-02-16T12:56:06;31.98;;;12.45;;
9763;SDS011;4921;43.214;27.936;2024-02-16T12:58:33;27.73;;;12.48;;
9763;SDS011;4921;43.214;27.936;2024-02-16T13:01:00;31.35;;;12.75;;
9763;SDS011;4921;43.214;27.936;2024-02-16T13:03:27;27.58;;;12.80;;
9763;SDS011;4921;43.214;27.936;2024-02-16T13:05:54;26.05;;;11.50;;
9763;SDS011;4921;43.214;27.936;2024-02-16T13:08:19;25.40;;;12.25;;
9763;SDS011;4921;43.214;27.936;2024-02-16T13:10:45;27.88;;;11.90;;
9763;SDS011;4921;43.214;27.936;2024-02-16T13:13:10;29.85;;;12.85;;
9763;SDS011;4921;43.214;27.936;2024-02-16T13:15:36;27.75;;;12.30;;
9763;SDS011;4921;43.214;27.936;2024-02-16T13:18:01;28.20;;;13.00;;
9763;SDS011;4921;43.214;27.936;2024-02-16T13:20:27;29.75;;;13.40;;
9763;SDS011;4921;43.214;27.936;2024-02-16T13:22:52;30.75;;;13.73;;
9763;SDS011;4921;43.214;27.936;2024-02-16T13:25:19;36.58;;;13.23;;
9763;SDS011;4921;43.214;27.936;2024-02-16T13:27:44;27.08;;;13.50;;
9763;SDS011;4921;43.214;27.936;2024-02-16T13:30:10;34.33;;;13.00;;
9763;SDS011;4921;43.214;27.936;2024-02-16T13:32:36;31.92;;;13.25;;
9763;SDS011;4921;43.214;27.936;2024-02-16T13:35:05;31.80;;;14.27;;
9763;SDS011;4921;43.214;27.936;2024-02-16T13:37:31;29.45;;;13.43;;
9763;SDS011;4921;43.214;27.936;2024-02-16T13:39:57;31.75;;;12.73;;
9763;SDS011;4921;43.214;27.936;2024-02-16T13:42:22;26.13;;;11.55;;
9763;SDS011;4921;43.214;27.936;2024-02-16T13:44:49;25.58;;;11.32;;
9763;SDS011;4921;43.214;27.936;2024-02-16T13:47:14;23.23;;;11.35;;
9763;SDS011;4921;43.214;27.936;2024-02-16T13:49:40;20.58;;;9.63;;
9763;SDS011;4921;43.214;27.936;2024-02-16T13:52:05;22.77;;;9.93;;
9763;SDS011;4921;43.214;27.936;2024-02-16T13:54:33;24.55;;;10.75;;
9763;SDS011;4921;43.214;27.936;2024-02-16T13:57:00;25.08;;;10.57;;
9763;SDS011;4921;43.214;27.936;2024-02-16T13:59:26;23.45;;;11.10;;
9763;SDS011;4921;43.214;27.936;2024-02-16T14:01:52;25.65;;;10.65;;
9763;SDS011;4921;43.214;27.936;2024-02-16T14:04:18;24.73;;;10.70;;
9763;SDS011;4921;43.214;27.936;2024-02-16T14:06:44;22.35;;;9.82;;
9763;SDS011;4921;43.214;27.936;2024-02-16T14:09:10;21.45;;;9.48;;
9763;SDS011;4921;43.214;27.936;2024-02-16T14:11:39;23.40;;;9.38;;
9763;SDS011;4921;43.214;27.936;2024-02-16T14:14:07;21.77;;;9.45;;
9763;SDS011;4921;43.214;27.936;2024-02-16T14:16:32;25.42;;;10.15;;
9763;SDS011;4921;43.214;27.936;2024-02-16T14:18:58;16.67;;;8.27;;
9763;SDS011;4921;43.214;27.936;2024-02-16T14:21:23;18.75;;;8.15;;
9763;SDS011;4921;43.214;27.936;2024-02-16T14:23:49;19.48;;;7.95;;
9763;SDS011;4921;43.214;27.936;2024-02-16T14:26:14;18.23;;;7.03;;
9763;SDS011;4921;43.214;27.936;2024-02-16T14:28:40;13.32;;;6.60;;
9763;SDS011;4921;43.214;27.936;2024-02-16T14:31:06;15.35;;;6.93;;
9763;SDS011;4921;43.214;27.936;2024-02-16T14:33:32;16.90;;;7.75;;
9763;SDS011;4921;43.214;27.936;2024-02-16T14:35:57;13.20;;;6.47;;
9763;SDS011;4921;43.214;27.936;2024-02-16T14:38:23;13.05;;;6.38;;
9763;SDS011;4921;43.214;27.936;2024-02-16T14:40:48;12.75;;;6.10;;
9763;SDS011;4921;43.214;27.936;2024-02-16T14:43:14;14.30;;;7.22;;
9763;SDS011;4921;43.214;27.936;2024-02-16T14:45:39;18.17;;;8.45;;
9763;SDS011;4921;43.214;27.936;2024-02-16T14:48:05;15.02;;;6.07;;
9763;SDS011;4921;43.214;27.936;2024-02-16T14:50:31;15.38;;;7.22;;